sensor_id;sensor_type;location;lat;lon;timestamp;temperature;humidity
30290;DHT22;17105;55.652;37.710;2023-05-10T05:52:21;17.10;36.80
30290;DHT22;17105;55.652;37.710;2023-05-10T05:52:55;17.20;37.30
30290;DHT22;17105;55.652;37.710;2023-05-10T05:53:28;17.20;37.50
30290;DHT22;17105;55.652;37.710;2023-05-10T05:54:01;17.30;37.60
30290;DHT22;17105;55.652;37.710;2023-05-10T05:54:36;17.30;37.50
30290;DHT22;17105;55.652;37.710;2023-05-10T05:55:23;17.30;37.80
30290;DHT22;17105;55.652;37.710;2023-05-10T05:56:05;17.30;37.40
30290;DHT22;17105;55.652;37.710;2023-05-10T05:56:38;17.40;37.20
30290;DHT22;17105;55.652;37.710;2023-05-10T05:57:10;17.40;37.20
30290;DHT22;17105;55.652;37.710;2023-05-10T05:57:44;17.40;37.10
30290;DHT22;17105;55.652;37.710;2023-05-10T05:58:16;17.40;37.00
30290;DHT22;17105;55.652;37.710;2023-05-10T05:58:49;17.50;37.20
30290;DHT22;17105;55.652;37.710;2023-05-10T05:59:23;17.50;37.10
30290;DHT22;17105;55.652;37.710;2023-05-10T05:59:55;17.50;36.90
30290;DHT22;17105;55.652;37.710;2023-05-10T06:00:28;17.50;36.70
30290;DHT22;17105;55.652;37.710;2023-05-10T06:01:01;17.60;36.80
30290;DHT22;17105;55.652;37.710;2023-05-10T06:01:34;17.60;36.60
30290;DHT22;17105;55.652;37.710;2023-05-10T06:02:07;17.60;36.60
30290;DHT22;17105;55.652;37.710;2023-05-10T06:02:41;17.60;36.70
30290;DHT22;17105;55.652;37.710;2023-05-10T06:03:14;17.70;36.80
30290;DHT22;17105;55.652;37.710;2023-05-10T06:03:46;17.70;36.80
30290;DHT22;17105;55.652;37.710;2023-05-10T06:04:24;17.70;36.80
30290;DHT22;17105;55.652;37.710;2023-05-10T06:04:57;17.80;36.50
30290;DHT22;17105;55.652;37.710;2023-05-10T06:05:29;17.80;36.20
30290;DHT22;17105;55.652;37.710;2023-05-10T06:06:05;17.80;36.20
30290;DHT22;17105;55.652;37.710;2023-05-10T06:06:37;17.80;36.10
30290;DHT22;17105;55.652;37.710;2023-05-10T06:07:10;17.80;36.10
30290;DHT22;17105;55.652;37.710;2023-05-10T06:07:46;17.90;36.10
30290;DHT22;17105;55.652;37.710;2023-05-10T06:08:18;17.90;36.10
30290;DHT22;17105;55.652;37.710;2023-05-10T06:08:52;17.90;36.10
30290;DHT22;17105;55.652;37.710;2023-05-10T06:09:25;17.90;36.00
30290;DHT22;17105;55.652;37.710;2023-05-10T06:09:57;17.90;35.70
30290;DHT22;17105;55.652;37.710;2023-05-10T06:10:32;18.00;35.60
30290;DHT22;17105;55.652;37.710;2023-05-10T06:11:05;18.00;35.40
30290;DHT22;17105;55.652;37.710;2023-05-10T06:11:38;18.00;35.20
30290;DHT22;17105;55.652;37.710;2023-05-10T06:12:14;18.00;35.20
30290;DHT22;17105;55.652;37.710;2023-05-10T06:12:46;18.00;34.80
30290;DHT22;17105;55.652;37.710;2023-05-10T06:13:20;18.00;34.50
30290;DHT22;17105;55.652;37.710;2023-05-10T06:13:53;18.00;34.50
30290;DHT22;17105;55.652;37.710;2023-05-10T06:14:26;18.00;34.60
30290;DHT22;17105;55.652;37.710;2023-05-10T06:14:59;18.00;34.60
30290;DHT22;17105;55.652;37.710;2023-05-10T06:15:32;18.00;34.50
30290;DHT22;17105;55.652;37.710;2023-05-10T06:16:05;18.00;34.50
30290;DHT22;17105;55.652;37.710;2023-05-10T06:16:39;18.00;34.40
30290;DHT22;17105;55.652;37.710;2023-05-10T06:17:12;18.00;34.40
30290;DHT22;17105;55.652;37.710;2023-05-10T06:17:45;18.00;34.50
30290;DHT22;17105;55.652;37.710;2023-05-10T06:18:21;18.00;34.20
30290;DHT22;17105;55.652;37.710;2023-05-10T06:18:54;18.00;34.30
30290;DHT22;17105;55.652;37.710;2023-05-10T06:19:27;18.00;34.30
30290;DHT22;17105;55.652;37.710;2023-05-10T06:20:00;18.00;34.30
30290;DHT22;17105;55.652;37.710;2023-05-10T06:20:34;18.00;34.40
30290;DHT22;17105;55.652;37.710;2023-05-10T06:21:09;18.00;34.60
30290;DHT22;17105;55.652;37.710;2023-05-10T06:21:42;18.10;34.70
30290;DHT22;17105;55.652;37.710;2023-05-10T06:22:15;18.10;34.50
30290;DHT22;17105;55.652;37.710;2023-05-10T06:22:48;18.10;34.50
30290;DHT22;17105;55.652;37.710;2023-05-10T06:23:21;18.10;34.20
30290;DHT22;17105;55.652;37.710;2023-05-10T06:23:55;18.10;34.10
30290;DHT22;17105;55.652;37.710;2023-05-10T06:24:28;18.10;33.90
30290;DHT22;17105;55.652;37.710;2023-05-10T06:25:00;18.10;33.70
30290;DHT22;17105;55.652;37.710;2023-05-10T06:25:34;18.10;33.90
30290;DHT22;17105;55.652;37.710;2023-05-10T06:26:07;18.10;33.70
30290;DHT22;17105;55.652;37.710;2023-05-10T06:26:41;18.10;33.60
30290;DHT22;17105;55.652;37.710;2023-05-10T06:27:14;18.10;33.60
30290;DHT22;17105;55.652;37.710;2023-05-10T06:27:46;18.10;33.50
30290;DHT22;17105;55.652;37.710;2023-05-10T06:28:24;18.10;33.50
30290;DHT22;17105;55.652;37.710;2023-05-10T06:28:57;18.10;33.70
30290;DHT22;17105;55.652;37.710;2023-05-10T06:29:30;18.10;33.60
30290;DHT22;17105;55.652;37.710;2023-05-10T06:30:04;18.10;33.70
30290;DHT22;17105;55.652;37.710;2023-05-10T06:30:44;18.10;33.80
30290;DHT22;17105;55.652;37.710;2023-05-10T06:31:18;18.10;33.90
30290;DHT22;17105;55.652;37.710;2023-05-10T06:31:50;18.10;33.80
30290;DHT22;17105;55.652;37.710;2023-05-10T06:32:25;18.10;33.70
30290;DHT22;17105;55.652;37.710;2023-05-10T06:32:57;18.10;33.80
30290;DHT22;17105;55.652;37.710;2023-05-10T06:33:31;18.10;33.80
30290;DHT22;17105;55.652;37.710;2023-05-10T06:34:04;18.10;34.00
30290;DHT22;17105;55.652;37.710;2023-05-10T06:34:40;18.10;34.20
30290;DHT22;17105;55.652;37.710;2023-05-10T06:35:12;18.10;34.30
30290;DHT22;17105;55.652;37.710;2023-05-10T06:35:45;18.20;34.30
30290;DHT22;17105;55.652;37.710;2023-05-10T06:36:20;18.20;34.20
30290;DHT22;17105;55.652;37.710;2023-05-10T06:36:52;18.20;34.20
30290;DHT22;17105;55.652;37.710;2023-05-10T06:37:26;18.20;34.20
30290;DHT22;17105;55.652;37.710;2023-05-10T06:37:59;18.20;34.30
30290;DHT22;17105;55.652;37.710;2023-05-10T06:38:31;18.30;34.50
30290;DHT22;17105;55.652;37.710;2023-05-10T06:39:05;18.30;34.30
30290;DHT22;17105;55.652;37.710;2023-05-10T06:39:38;18.30;33.80
30290;DHT22;17105;55.652;37.710;2023-05-10T06:40:11;18.30;33.80
30290;DHT22;17105;55.652;37.710;2023-05-10T06:40:45;18.30;33.80
30290;DHT22;17105;55.652;37.710;2023-05-10T06:41:17;18.30;33.70
30290;DHT22;17105;55.652;37.710;2023-05-10T06:41:53;18.40;33.60
30290;DHT22;17105;55.652;37.710;2023-05-10T06:42:26;18.40;33.70
30290;DHT22;17105;55.652;37.710;2023-05-10T06:42:59;18.40;33.70
30290;DHT22;17105;55.652;37.710;2023-05-10T06:43:33;18.40;33.70
30290;DHT22;17105;55.652;37.710;2023-05-10T06:44:05;18.40;33.70
30290;DHT22;17105;55.652;37.710;2023-05-10T06:44:39;18.50;33.60
30290;DHT22;17105;55.652;37.710;2023-05-10T06:45:12;18.50;33.60
30290;DHT22;17105;55.652;37.710;2023-05-10T06:45:47;18.50;33.40
30290;DHT22;17105;55.652;37.710;2023-05-10T06:46:20;18.50;33.40
30290;DHT22;17105;55.652;37.710;2023-05-10T06:46:54;18.60;33.40
30290;DHT22;17105;55.652;37.710;2023-05-10T06:47:28;18.60;33.20
30290;DHT22;17105;55.652;37.710;2023-05-10T06:48:00;18.60;33.40
30290;DHT22;17105;55.652;37.710;2023-05-10T06:48:34;18.60;33.50
30290;DHT22;17105;55.652;37.710;2023-05-10T06:49:07;18.70;33.60
30290;DHT22;17105;55.652;37.710;2023-05-10T06:49:41;18.70;33.60
30290;DHT22;17105;55.652;37.710;2023-05-10T06:50:13;18.70;33.40
30290;DHT22;17105;55.652;37.710;2023-05-10T06:50:47;18.70;33.00
30290;DHT22;17105;55.652;37.710;2023-05-10T06:51:21;18.80;32.60
30290;DHT22;17105;55.652;37.710;2023-05-10T06:51:55;18.80;32.40
30290;DHT22;17105;55.652;37.710;2023-05-10T06:52:28;18.80;32.40
30290;DHT22;17105;55.652;37.710;2023-05-10T06:53:01;18.90;32.50
30290;DHT22;17105;55.652;37.710;2023-05-10T06:53:35;18.90;32.40
30290;DHT22;17105;55.652;37.710;2023-05-10T06:54:07;18.90;32.40
30290;DHT22;17105;55.652;37.710;2023-05-10T06:54:41;19.00;32.90
30290;DHT22;17105;55.652;37.710;2023-05-10T06:55:14;19.00;32.20
30290;DHT22;17105;55.652;37.710;2023-05-10T06:55:47;19.00;31.80
30290;DHT22;17105;55.652;37.710;2023-05-10T06:56:22;19.10;31.80
30290;DHT22;17105;55.652;37.710;2023-05-10T06:56:55;19.00;31.80
30290;DHT22;17105;55.652;37.710;2023-05-10T06:57:27;19.10;32.00
30290;DHT22;17105;55.652;37.710;2023-05-10T06:58:03;19.10;32.70
30290;DHT22;17105;55.652;37.710;2023-05-10T06:58:36;19.20;32.10
30290;DHT22;17105;55.652;37.710;2023-05-10T06:59:10;19.20;32.00
30290;DHT22;17105;55.652;37.710;2023-05-10T06:59:42;19.20;32.20
30290;DHT22;17105;55.652;37.710;2023-05-10T07:00:16;19.20;32.30
30290;DHT22;17105;55.652;37.710;2023-05-10T07:00:50;19.30;32.00
30290;DHT22;17105;55.652;37.710;2023-05-10T07:01:23;19.20;31.80
30290;DHT22;17105;55.652;37.710;2023-05-10T07:02:30;19.30;31.50
30290;DHT22;17105;55.652;37.710;2023-05-10T07:03:03;19.40;32.20
30290;DHT22;17105;55.652;37.710;2023-05-10T07:03:36;19.30;32.30
30290;DHT22;17105;55.652;37.710;2023-05-10T07:04:09;19.40;32.20
30290;DHT22;17105;55.652;37.710;2023-05-10T07:04:43;19.50;32.00
30290;DHT22;17105;55.652;37.710;2023-05-10T07:05:15;19.50;31.90
30290;DHT22;17105;55.652;37.710;2023-05-10T07:05:49;19.60;31.70
30290;DHT22;17105;55.652;37.710;2023-05-10T07:06:24;19.70;31.60
30290;DHT22;17105;55.652;37.710;2023-05-10T07:07:04;19.80;31.70
30290;DHT22;17105;55.652;37.710;2023-05-10T07:07:38;19.90;31.80
30290;DHT22;17105;55.652;37.710;2023-05-10T07:08:13;20.00;31.60
30290;DHT22;17105;55.652;37.710;2023-05-10T07:08:46;20.10;31.40
30290;DHT22;17105;55.652;37.710;2023-05-10T07:09:20;20.20;31.70
30290;DHT22;17105;55.652;37.710;2023-05-10T07:09:54;20.30;31.30
30290;DHT22;17105;55.652;37.710;2023-05-10T07:10:28;20.30;31.40
30290;DHT22;17105;55.652;37.710;2023-05-10T07:11:03;20.40;31.30
30290;DHT22;17105;55.652;37.710;2023-05-10T07:11:35;20.50;31.10
30290;DHT22;17105;55.652;37.710;2023-05-10T07:12:11;20.50;31.30
30290;DHT22;17105;55.652;37.710;2023-05-10T07:12:46;20.60;31.30
30290;DHT22;17105;55.652;37.710;2023-05-10T07:13:19;20.60;31.20
30290;DHT22;17105;55.652;37.710;2023-05-10T14:00:45;20.20;31.00
30290;DHT22;17105;55.652;37.710;2023-05-10T14:01:18;19.60;31.40
30290;DHT22;17105;55.652;37.710;2023-05-10T14:01:51;19.60;31.30
30290;DHT22;17105;55.652;37.710;2023-05-10T14:02:24;19.60;31.40
30290;DHT22;17105;55.652;37.710;2023-05-10T14:02:59;19.50;31.20
30290;DHT22;17105;55.652;37.710;2023-05-10T14:03:32;19.50;30.90
30290;DHT22;17105;55.652;37.710;2023-05-10T14:04:05;19.60;30.80
30290;DHT22;17105;55.652;37.710;2023-05-10T14:04:39;19.50;30.80
30290;DHT22;17105;55.652;37.710;2023-05-10T14:05:11;19.50;30.90
30290;DHT22;17105;55.652;37.710;2023-05-10T14:05:45;19.50;30.90
30290;DHT22;17105;55.652;37.710;2023-05-10T14:06:19;19.50;31.00
30290;DHT22;17105;55.652;37.710;2023-05-10T14:06:52;19.50;30.90
30290;DHT22;17105;55.652;37.710;2023-05-10T14:07:26;19.40;30.80
30290;DHT22;17105;55.652;37.710;2023-05-10T14:07:58;19.40;30.90
30290;DHT22;17105;55.652;37.710;2023-05-10T14:08:32;19.40;30.90
30290;DHT22;17105;55.652;37.710;2023-05-10T14:09:04;19.40;30.80
30290;DHT22;17105;55.652;37.710;2023-05-10T14:09:38;19.40;30.90
30290;DHT22;17105;55.652;37.710;2023-05-10T14:10:11;19.40;31.00
30290;DHT22;17105;55.652;37.710;2023-05-10T14:10:44;19.40;31.00
30290;DHT22;17105;55.652;37.710;2023-05-10T14:11:17;19.40;31.10
30290;DHT22;17105;55.652;37.710;2023-05-10T14:11:49;19.30;31.10
30290;DHT22;17105;55.652;37.710;2023-05-10T14:12:23;19.40;31.10
30290;DHT22;17105;55.652;37.710;2023-05-10T14:12:56;19.30;31.00
30290;DHT22;17105;55.652;37.710;2023-05-10T14:13:29;19.40;31.10
30290;DHT22;17105;55.652;37.710;2023-05-10T14:14:03;19.40;31.20
30290;DHT22;17105;55.652;37.710;2023-05-10T14:14:38;19.40;31.40
30290;DHT22;17105;55.652;37.710;2023-05-10T14:15:12;19.40;31.50
30290;DHT22;17105;55.652;37.710;2023-05-10T14:15:44;19.40;31.60
30290;DHT22;17105;55.652;37.710;2023-05-10T14:16:17;19.40;31.70
30290;DHT22;17105;55.652;37.710;2023-05-10T14:16:51;19.40;31.90
30290;DHT22;17105;55.652;37.710;2023-05-10T14:17:24;19.40;31.90
30290;DHT22;17105;55.652;37.710;2023-05-10T14:17:57;19.40;31.90
30290;DHT22;17105;55.652;37.710;2023-05-10T14:18:31;19.40;31.80
30290;DHT22;17105;55.652;37.710;2023-05-10T14:19:04;19.40;31.80
30290;DHT22;17105;55.652;37.710;2023-05-10T14:19:37;19.40;31.90
30290;DHT22;17105;55.652;37.710;2023-05-10T14:20:13;19.40;32.00
30290;DHT22;17105;55.652;37.710;2023-05-10T14:20:46;19.40;32.10
30290;DHT22;17105;55.652;37.710;2023-05-10T14:21:19;19.50;32.30
30290;DHT22;17105;55.652;37.710;2023-05-10T14:21:52;19.50;32.40
30290;DHT22;17105;55.652;37.710;2023-05-10T14:22:25;19.50;32.70
30290;DHT22;17105;55.652;37.710;2023-05-10T14:22:58;19.50;32.70
30290;DHT22;17105;55.652;37.710;2023-05-10T14:23:31;19.50;32.60
30290;DHT22;17105;55.652;37.710;2023-05-10T14:24:05;19.50;32.50
30290;DHT22;17105;55.652;37.710;2023-05-10T14:24:38;19.50;32.30
30290;DHT22;17105;55.652;37.710;2023-05-10T14:25:11;19.50;32.20
30290;DHT22;17105;55.652;37.710;2023-05-10T14:25:45;19.50;32.10
30290;DHT22;17105;55.652;37.710;2023-05-10T14:26:18;19.50;32.70
30290;DHT22;17105;55.652;37.710;2023-05-10T14:26:52;19.50;32.00
30290;DHT22;17105;55.652;37.710;2023-05-10T14:27:26;19.40;31.90
30290;DHT22;17105;55.652;37.710;2023-05-10T14:27:58;19.40;31.90
30290;DHT22;17105;55.652;37.710;2023-05-10T14:28:32;19.40;31.90
30290;DHT22;17105;55.652;37.710;2023-05-10T14:29:05;19.50;32.00
30290;DHT22;17105;55.652;37.710;2023-05-10T14:29:43;19.50;32.10
30290;DHT22;17105;55.652;37.710;2023-05-10T14:30:15;19.50;31.80
30290;DHT22;17105;55.652;37.710;2023-05-10T14:30:49;19.50;31.60
30290;DHT22;17105;55.652;37.710;2023-05-10T14:31:22;19.50;31.60
30290;DHT22;17105;55.652;37.710;2023-05-10T14:31:57;19.50;31.60
30290;DHT22;17105;55.652;37.710;2023-05-10T14:32:30;19.50;31.70
30290;DHT22;17105;55.652;37.710;2023-05-10T14:33:04;19.50;31.70
30290;DHT22;17105;55.652;37.710;2023-05-10T14:33:38;19.50;31.60
30290;DHT22;17105;55.652;37.710;2023-05-10T14:34:10;19.50;31.50
30290;DHT22;17105;55.652;37.710;2023-05-10T14:34:44;19.50;31.40
30290;DHT22;17105;55.652;37.710;2023-05-10T14:35:16;19.40;31.30
30290;DHT22;17105;55.652;37.710;2023-05-10T14:35:51;19.50;31.30
30290;DHT22;17105;55.652;37.710;2023-05-10T14:36:24;19.40;31.20
30290;DHT22;17105;55.652;37.710;2023-05-10T14:36:57;19.40;31.20
30290;DHT22;17105;55.652;37.710;2023-05-10T14:37:31;19.40;31.20
30290;DHT22;17105;55.652;37.710;2023-05-10T14:38:04;19.40;31.20
30290;DHT22;17105;55.652;37.710;2023-05-10T14:38:38;19.40;31.10
30290;DHT22;17105;55.652;37.710;2023-05-10T14:39:11;19.30;31.10
30290;DHT22;17105;55.652;37.710;2023-05-10T14:39:45;19.30;31.10
30290;DHT22;17105;55.652;37.710;2023-05-10T14:40:19;19.30;31.10
30290;DHT22;17105;55.652;37.710;2023-05-10T14:40:51;19.30;31.20
30290;DHT22;17105;55.652;37.710;2023-05-10T14:41:25;19.30;31.20
30290;DHT22;17105;55.652;37.710;2023-05-10T14:41:58;19.30;31.10
30290;DHT22;17105;55.652;37.710;2023-05-10T14:42:31;19.30;31.10
30290;DHT22;17105;55.652;37.710;2023-05-10T14:43:04;19.30;31.20
30290;DHT22;17105;55.652;37.710;2023-05-10T14:43:37;19.30;31.10
30290;DHT22;17105;55.652;37.710;2023-05-10T14:44:10;19.30;31.20
30290;DHT22;17105;55.652;37.710;2023-05-10T14:44:45;19.20;31.70
30290;DHT22;17105;55.652;37.710;2023-05-10T14:45:22;19.20;31.10
30290;DHT22;17105;55.652;37.710;2023-05-10T14:45:54;19.20;31.10
30290;DHT22;17105;55.652;37.710;2023-05-10T14:46:28;19.20;31.10
30290;DHT22;17105;55.652;37.710;2023-05-10T14:47:02;19.20;31.10
30290;DHT22;17105;55.652;37.710;2023-05-10T14:47:34;19.20;31.20
30290;DHT22;17105;55.652;37.710;2023-05-10T14:48:08;19.20;31.20
30290;DHT22;17105;55.652;37.710;2023-05-10T14:48:44;19.20;31.30
30290;DHT22;17105;55.652;37.710;2023-05-10T14:49:19;19.20;31.30
30290;DHT22;17105;55.652;37.710;2023-05-10T14:49:55;19.20;31.30
30290;DHT22;17105;55.652;37.710;2023-05-10T14:50:27;19.20;31.20
30290;DHT22;17105;55.652;37.710;2023-05-10T14:51:07;19.20;31.20
30290;DHT22;17105;55.652;37.710;2023-05-10T14:51:40;19.20;31.20
30290;DHT22;17105;55.652;37.710;2023-05-10T14:52:15;19.20;31.20
30290;DHT22;17105;55.652;37.710;2023-05-10T14:52:48;19.20;31.30
30290;DHT22;17105;55.652;37.710;2023-05-10T14:53:22;19.20;31.30
30290;DHT22;17105;55.652;37.710;2023-05-10T14:53:56;19.20;31.30
30290;DHT22;17105;55.652;37.710;2023-05-10T14:54:30;19.20;31.30
30290;DHT22;17105;55.652;37.710;2023-05-10T14:55:03;19.30;31.40
30290;DHT22;17105;55.652;37.710;2023-05-10T14:55:36;19.30;31.40
30290;DHT22;17105;55.652;37.710;2023-05-10T14:56:10;19.30;31.40
30290;DHT22;17105;55.652;37.710;2023-05-10T14:56:43;19.30;31.50
30290;DHT22;17105;55.652;37.710;2023-05-10T14:57:15;19.30;31.70
30290;DHT22;17105;55.652;37.710;2023-05-10T14:57:49;19.30;31.90
30290;DHT22;17105;55.652;37.710;2023-05-10T14:58:22;19.30;32.10
30290;DHT22;17105;55.652;37.710;2023-05-10T14:58:57;19.30;32.20
30290;DHT22;17105;55.652;37.710;2023-05-10T14:59:32;19.30;32.20
30290;DHT22;17105;55.652;37.710;2023-05-10T15:00:08;19.30;32.40
30290;DHT22;17105;55.652;37.710;2023-05-10T15:00:43;19.40;32.50
30290;DHT22;17105;55.652;37.710;2023-05-10T15:01:16;19.30;32.50
30290;DHT22;17105;55.652;37.710;2023-05-10T15:01:51;19.40;32.50
30290;DHT22;17105;55.652;37.710;2023-05-10T15:02:24;19.40;32.50
30290;DHT22;17105;55.652;37.710;2023-05-10T15:02:59;19.40;32.40
30290;DHT22;17105;55.652;37.710;2023-05-10T15:03:32;19.30;32.40
30290;DHT22;17105;55.652;37.710;2023-05-10T15:04:06;19.30;32.40
30290;DHT22;17105;55.652;37.710;2023-05-10T15:04:39;19.30;32.30
30290;DHT22;17105;55.652;37.710;2023-05-10T15:05:13;19.30;32.20
30290;DHT22;17105;55.652;37.710;2023-05-10T15:05:47;19.30;32.40
30290;DHT22;17105;55.652;37.710;2023-05-10T15:06:23;19.30;32.40
30290;DHT22;17105;55.652;37.710;2023-05-10T15:06:57;19.30;32.40
30290;DHT22;17105;55.652;37.710;2023-05-10T15:07:31;19.30;32.50
30290;DHT22;17105;55.652;37.710;2023-05-10T15:08:04;19.30;32.40
30290;DHT22;17105;55.652;37.710;2023-05-10T15:08:38;19.30;32.40
30290;DHT22;17105;55.652;37.710;2023-05-10T15:09:10;19.30;32.30
30290;DHT22;17105;55.652;37.710;2023-05-10T15:09:43;19.30;32.30
30290;DHT22;17105;55.652;37.710;2023-05-10T15:10:17;19.30;32.40
30290;DHT22;17105;55.652;37.710;2023-05-10T15:10:49;19.30;32.50
30290;DHT22;17105;55.652;37.710;2023-05-10T15:11:23;19.30;32.70
30290;DHT22;17105;55.652;37.710;2023-05-10T15:11:56;19.30;32.70
30290;DHT22;17105;55.652;37.710;2023-05-10T15:12:29;19.30;32.80
30290;DHT22;17105;55.652;37.710;2023-05-10T15:13:04;19.30;32.80
30290;DHT22;17105;55.652;37.710;2023-05-10T15:13:43;19.30;32.90
30290;DHT22;17105;55.652;37.710;2023-05-10T15:14:16;19.30;32.50
30290;DHT22;17105;55.652;37.710;2023-05-10T15:14:50;19.30;32.50
30290;DHT22;17105;55.652;37.710;2023-05-10T15:15:24;19.30;32.40
30290;DHT22;17105;55.652;37.710;2023-05-10T15:15:57;19.20;32.30
30290;DHT22;17105;55.652;37.710;2023-05-10T15:16:30;19.20;32.20
30290;DHT22;17105;55.652;37.710;2023-05-10T15:17:07;19.20;32.20
30290;DHT22;17105;55.652;37.710;2023-05-10T15:17:39;19.20;32.10
30290;DHT22;17105;55.652;37.710;2023-05-10T15:18:12;19.20;32.00
30290;DHT22;17105;55.652;37.710;2023-05-10T15:18:46;19.20;32.00
30290;DHT22;17105;55.652;37.710;2023-05-10T15:19:20;19.20;31.90
30290;DHT22;17105;55.652;37.710;2023-05-10T15:19:54;19.20;31.90
30290;DHT22;17105;55.652;37.710;2023-05-10T15:20:26;19.20;31.90
30290;DHT22;17105;55.652;37.710;2023-05-10T15:21:00;19.20;31.90
30290;DHT22;17105;55.652;37.710;2023-05-10T15:21:33;19.10;32.00
30290;DHT22;17105;55.652;37.710;2023-05-10T15:22:11;19.20;32.00
30290;DHT22;17105;55.652;37.710;2023-05-10T15:22:43;19.20;32.00
30290;DHT22;17105;55.652;37.710;2023-05-10T15:23:17;19.20;32.00
30290;DHT22;17105;55.652;37.710;2023-05-10T15:23:50;19.20;32.00
30290;DHT22;17105;55.652;37.710;2023-05-10T15:24:23;19.10;31.90
30290;DHT22;17105;55.652;37.710;2023-05-10T15:24:57;19.10;31.90
30290;DHT22;17105;55.652;37.710;2023-05-10T15:25:29;19.10;31.90
30290;DHT22;17105;55.652;37.710;2023-05-10T15:26:03;19.10;31.90
30290;DHT22;17105;55.652;37.710;2023-05-10T15:26:36;19.10;31.90
30290;DHT22;17105;55.652;37.710;2023-05-10T15:27:09;19.10;31.90
30290;DHT22;17105;55.652;37.710;2023-05-10T15:27:42;19.20;31.90
30290;DHT22;17105;55.652;37.710;2023-05-10T15:28:16;19.10;31.80
30290;DHT22;17105;55.652;37.710;2023-05-10T15:28:49;19.10;31.80
30290;DHT22;17105;55.652;37.710;2023-05-10T15:29:23;19.10;31.80
30290;DHT22;17105;55.652;37.710;2023-05-10T15:29:55;19.10;31.90
30290;DHT22;17105;55.652;37.710;2023-05-10T15:30:29;19.00;31.90
30290;DHT22;17105;55.652;37.710;2023-05-10T15:31:05;19.10;31.90
30290;DHT22;17105;55.652;37.710;2023-05-10T15:31:38;19.10;31.90
30290;DHT22;17105;55.652;37.710;2023-05-10T15:32:11;19.10;31.90
30290;DHT22;17105;55.652;37.710;2023-05-10T15:32:45;19.00;31.70
30290;DHT22;17105;55.652;37.710;2023-05-10T15:33:18;19.00;31.50
30290;DHT22;17105;55.652;37.710;2023-05-10T15:33:51;19.00;31.50
30290;DHT22;17105;55.652;37.710;2023-05-10T15:34:28;19.10;31.50
30290;DHT22;17105;55.652;37.710;2023-05-10T15:35:04;19.10;31.60
30290;DHT22;17105;55.652;37.710;2023-05-10T15:35:38;19.10;31.70
30290;DHT22;17105;55.652;37.710;2023-05-10T15:36:11;19.00;31.80
30290;DHT22;17105;55.652;37.710;2023-05-10T15:36:45;19.10;32.50
30290;DHT22;17105;55.652;37.710;2023-05-10T15:37:18;19.10;32.00
30290;DHT22;17105;55.652;37.710;2023-05-10T15:37:50;19.10;32.00
30290;DHT22;17105;55.652;37.710;2023-05-10T15:38:24;19.10;32.00
30290;DHT22;17105;55.652;37.710;2023-05-10T15:38:56;19.10;31.90
30290;DHT22;17105;55.652;37.710;2023-05-10T15:39:29;19.10;32.00
30290;DHT22;17105;55.652;37.710;2023-05-10T15:40:03;19.00;32.60
30290;DHT22;17105;55.652;37.710;2023-05-10T15:40:37;19.10;32.10
30290;DHT22;17105;55.652;37.710;2023-05-10T15:41:10;19.10;32.00
30290;DHT22;17105;55.652;37.710;2023-05-10T15:41:44;19.10;32.10
30290;DHT22;17105;55.652;37.710;2023-05-10T15:42:17;19.10;32.10
30290;DHT22;17105;55.652;37.710;2023-05-10T15:42:49;19.00;32.20
30290;DHT22;17105;55.652;37.710;2023-05-10T15:43:23;19.00;32.20
30290;DHT22;17105;55.652;37.710;2023-05-10T15:43:56;19.10;32.30
30290;DHT22;17105;55.652;37.710;2023-05-10T15:44:31;19.00;32.40
30290;DHT22;17105;55.652;37.710;2023-05-10T15:45:08;19.00;32.40
30290;DHT22;17105;55.652;37.710;2023-05-10T15:45:42;19.00;32.30
30290;DHT22;17105;55.652;37.710;2023-05-10T15:46:16;19.00;32.30
30290;DHT22;17105;55.652;37.710;2023-05-10T15:46:49;19.00;32.20
30290;DHT22;17105;55.652;37.710;2023-05-10T15:47:22;19.00;32.10
30290;DHT22;17105;55.652;37.710;2023-05-10T15:47:55;19.00;32.10
30290;DHT22;17105;55.652;37.710;2023-05-10T15:48:28;18.90;31.90
30290;DHT22;17105;55.652;37.710;2023-05-10T15:49:03;19.00;32.00
30290;DHT22;17105;55.652;37.710;2023-05-10T15:49:36;18.90;31.90
30290;DHT22;17105;55.652;37.710;2023-05-10T15:50:10;18.90;32.00
30290;DHT22;17105;55.652;37.710;2023-05-10T15:50:48;18.90;31.90
30290;DHT22;17105;55.652;37.710;2023-05-10T15:51:22;18.90;31.90
30290;DHT22;17105;55.652;37.710;2023-05-10T15:51:55;18.90;31.90
30290;DHT22;17105;55.652;37.710;2023-05-10T15:52:28;18.90;32.00
30290;DHT22;17105;55.652;37.710;2023-05-10T15:53:01;18.90;32.00
30290;DHT22;17105;55.652;37.710;2023-05-10T15:53:34;18.90;32.00
30290;DHT22;17105;55.652;37.710;2023-05-10T15:54:07;18.90;32.00
30290;DHT22;17105;55.652;37.710;2023-05-10T15:54:40;18.90;32.10
30290;DHT22;17105;55.652;37.710;2023-05-10T15:55:13;18.90;32.20
30290;DHT22;17105;55.652;37.710;2023-05-10T15:55:47;18.90;32.20
30290;DHT22;17105;55.652;37.710;2023-05-10T15:56:20;18.90;32.30
30290;DHT22;17105;55.652;37.710;2023-05-10T15:56:54;18.90;32.50
30290;DHT22;17105;55.652;37.710;2023-05-10T15:57:27;19.00;32.80
30290;DHT22;17105;55.652;37.710;2023-05-10T15:58:01;18.90;32.90
30290;DHT22;17105;55.652;37.710;2023-05-10T15:58:33;19.00;33.10
30290;DHT22;17105;55.652;37.710;2023-05-10T15:59:06;19.00;33.30
30290;DHT22;17105;55.652;37.710;2023-05-10T15:59:41;19.00;33.20
30290;DHT22;17105;55.652;37.710;2023-05-10T16:00:15;19.00;33.20
30290;DHT22;17105;55.652;37.710;2023-05-10T16:00:50;18.90;33.00
30290;DHT22;17105;55.652;37.710;2023-05-10T16:01:22;18.90;32.90
30290;DHT22;17105;55.652;37.710;2023-05-10T16:01:56;18.90;32.90
30290;DHT22;17105;55.652;37.710;2023-05-10T16:02:30;18.90;32.90
30290;DHT22;17105;55.652;37.710;2023-05-10T16:03:02;18.90;32.90
30290;DHT22;17105;55.652;37.710;2023-05-10T16:03:35;19.00;33.00
30290;DHT22;17105;55.652;37.710;2023-05-10T16:04:09;18.90;33.00
30290;DHT22;17105;55.652;37.710;2023-05-10T16:04:42;18.90;32.90
30290;DHT22;17105;55.652;37.710;2023-05-10T16:05:15;18.90;32.90
30290;DHT22;17105;55.652;37.710;2023-05-10T16:05:49;18.90;32.90
30290;DHT22;17105;55.652;37.710;2023-05-10T16:06:22;18.90;32.90
30290;DHT22;17105;55.652;37.710;2023-05-10T16:06:56;18.90;33.00
30290;DHT22;17105;55.652;37.710;2023-05-10T16:07:28;18.90;33.00
30290;DHT22;17105;55.652;37.710;2023-05-10T16:08:01;18.90;33.00
30290;DHT22;17105;55.652;37.710;2023-05-10T16:08:35;18.90;33.10